ead1.com.br alexa rank chart, ead1.com.br alexa rank daily changes

ead1.com.br alexa rank chart, ead1.com.br alexa rank daily changes

ead1.com.br
Actual rank:
911 480

RANK HISTORY

Date Rank Diff
2018/01/21 911 480 +53 594
2018/01/20 857 886 -429
2018/01/19 858 315 +40 164
2018/01/18 818 151 +3 964
2018/01/17 814 187 -23 183
2018/01/16 837 370 -16 449
2018/01/15 853 819 +19 984
2018/01/14 833 835 -7 515
2018/01/13 841 350 -26 894
2018/01/12 868 244 -23 406
2018/01/11 891 650 +12 802
2018/01/10 878 848 +1 614
2018/01/09 877 234 -46 224
2018/01/08 923 458 -18 740
2018/01/07 942 198 +200 109
2018/01/06 742 089 +48 551
2018/01/05 693 538 +6 496
2018/01/04 687 042 +1 832
2018/01/03 685 210 +10 139
2018/01/02 675 071 +8 684
2018/01/01 666 387 +14 563
2017/12/31 651 824 +32 258
2017/12/30 619 566 +8 080
2017/12/29 611 486 -8 419
2017/12/28 619 905 -212
2017/12/27 620 117 -1 948
2017/12/26 622 065 +7 276
2017/12/25 614 789 +305
2017/12/24 614 484 +7 466
2017/12/23 607 018 -4 332
2017/12/22 611 350 -2 577
2017/12/21 613 927 -23 128
2017/12/20 637 055 +18 611
2017/12/19 618 444 +1 739
2017/12/18 616 705 +16 759
2017/12/17 599 946 +10 796
2017/12/16 589 150 +6 650
2017/12/15 582 500 -2 660
2017/12/14 585 160 -5 065
2017/12/13 590 225 +13 552
2017/12/12 576 673 +15 525
2017/12/11 561 148 +8 595
2017/12/10 552 553 +4 040
2017/12/09 548 513 +12 951
2017/12/08 535 562 +5 256
2017/12/07 530 306 -64 049
2017/12/06 594 355 -29 851
2017/12/05 624 206 -6 117
2017/12/04 630 323 +903
2017/12/03 629 420 +4 276
2017/12/02 625 144 +1 601
2017/12/01 623 543 -6 179
2017/11/30 629 722 -6 975
2017/11/29 636 697 +2 316
2017/11/28 634 381 +8 810
2017/11/27 625 571 -2 079
2017/11/26 627 650 +8 296
2017/11/25 619 354 -2 477
2017/11/24 621 831 +5 973
2017/11/23 615 858 -6 883
2017/11/22 622 741

WIDGET FOR YOUR SITE

DOMAINS WITH THE NEAREST RANK

Domain Rank
filebehind.com 911 475
matchfishing.hr 911 476
youtubethumbnailgenerator.blogspot.fr 911 477
yourguitarworkshop.com 911 478
deaddrawgaming.com 911 479
ead1.com.br 911 480
e-arpa.jp 911 481
modd.com 911 482
pdfiler.com 911 483
smartnews.bg 911 484
startickets.com 911 485

DOMAINS WITH THE NEAREST RANK BY TLD .com.br

Domain Rank
shoppingvaledoaco.com.br 911 128
aadvance.com.br 911 172
grandeeletro.com.br 911 178
esquematizarconcursos.com.br 911 336
speedo.com.br 911 396
ead1.com.br 911 480
cutelariadoisaias.com.br 911 496
goncalvesimoveis.com.br 911 519
yarabrasil.com.br 911 529
fcapress.com.br 911 548
assineskyagora.com.br 911 574